createdAt,value
2023-02-23T00:02:08.664Z,12.87
2023-02-23T00:04:38.318Z,12.90
2023-02-23T00:07:06.641Z,12.91
2023-02-23T00:09:37.952Z,12.83
2023-02-23T00:12:09.890Z,12.80
2023-02-23T00:14:38.877Z,12.78
2023-02-23T00:17:15.277Z,12.75
2023-02-23T00:19:47.167Z,12.70
2023-02-23T00:22:15.470Z,12.62
2023-02-23T00:24:47.457Z,12.59
2023-02-23T00:27:20.415Z,12.54
2023-02-23T00:29:49.924Z,12.49
2023-02-23T00:32:22.571Z,12.42
2023-02-23T00:34:53.607Z,12.36
2023-02-23T00:37:23.695Z,12.28
2023-02-23T00:39:56.965Z,12.20
2023-02-23T00:42:29.722Z,12.12
2023-02-23T00:45:08.620Z,12.02
2023-02-23T00:47:36.568Z,11.93
2023-02-23T00:50:05.606Z,11.88
2023-02-23T00:52:33.328Z,11.82
2023-02-23T00:55:04.067Z,11.78
2023-02-23T00:57:31.644Z,11.77
2023-02-23T00:59:59.461Z,11.75
2023-02-23T01:02:30.875Z,11.75
2023-02-23T01:04:58.853Z,11.77
2023-02-23T01:07:26.927Z,11.79
2023-02-23T01:09:54.845Z,11.75
2023-02-23T01:12:22.538Z,11.64
2023-02-23T01:14:51.242Z,11.50
2023-02-23T01:17:19.199Z,11.39
2023-02-23T01:19:47.276Z,11.29
2023-02-23T01:22:14.899Z,11.20
2023-02-23T01:24:42.980Z,11.10
2023-02-23T01:27:10.783Z,11.03
2023-02-23T01:29:38.708Z,10.94
2023-02-23T01:32:08.386Z,10.85
2023-02-23T01:34:36.189Z,10.75
2023-02-23T01:37:03.977Z,10.70
2023-02-23T01:39:33.714Z,10.63
2023-02-23T01:42:01.260Z,10.56
2023-02-23T01:44:32.016Z,10.51
2023-02-23T01:46:59.611Z,10.44
2023-02-23T01:49:31.013Z,10.38
2023-02-23T01:52:11.088Z,10.31
2023-02-23T01:54:52.386Z,10.27
2023-02-23T01:57:25.105Z,10.24
2023-02-23T01:59:55.110Z,10.20
2023-02-23T02:02:32.974Z,10.15
2023-02-23T02:05:05.061Z,10.07
2023-02-23T02:07:35.400Z,10.06
2023-02-23T02:10:13.121Z,10.06
2023-02-23T02:12:54.891Z,10.02
2023-02-23T02:15:28.298Z,9.99
2023-02-23T02:18:09.684Z,9.96
2023-02-23T02:21:20.721Z,9.89
2023-02-23T02:24:19.545Z,9.83
2023-02-23T02:27:20.289Z,9.80
2023-02-23T02:30:32.312Z,9.76
2023-02-23T02:33:44.041Z,9.70
2023-02-23T02:37:02.270Z,9.69
2023-02-23T02:40:16.490Z,9.66
2023-02-23T02:43:01.191Z,9.66
2023-02-23T02:45:34.665Z,9.66
2023-02-23T02:49:00.561Z,9.66
2023-02-23T02:51:49.278Z,9.67
2023-02-23T02:54:31.737Z,9.65
2023-02-23T02:57:04.595Z,9.67
2023-02-23T03:00:06.059Z,9.69
2023-02-23T03:02:58.770Z,9.69
2023-02-23T03:06:07.221Z,9.65
2023-02-23T03:09:13.042Z,9.67
2023-02-23T03:12:12.262Z,9.68
2023-02-23T03:15:27.078Z,9.68
2023-02-23T03:18:45.417Z,9.64
2023-02-23T03:21:43.030Z,9.67
2023-02-23T03:24:57.317Z,9.74
2023-02-23T03:27:54.117Z,9.85
2023-02-23T03:31:25.094Z,10.06
2023-02-23T03:34:33.607Z,10.23
2023-02-23T03:37:50.686Z,10.38
2023-02-23T03:40:51.180Z,10.48
2023-02-23T03:43:44.130Z,10.55
2023-02-23T03:46:33.453Z,10.56
2023-02-23T03:49:23.397Z,10.57
2023-02-23T03:52:18.421Z,10.54
2023-02-23T03:55:18.140Z,10.48
2023-02-23T03:58:09.674Z,10.42
2023-02-23T04:01:04.378Z,10.35
2023-02-23T04:03:55.887Z,10.23
2023-02-23T04:06:46.212Z,10.10
2023-02-23T04:09:33.143Z,9.94
2023-02-23T04:12:48.505Z,9.74
2023-02-23T04:15:33.871Z,9.48
2023-02-23T04:18:03.707Z,9.39
2023-02-23T04:20:31.878Z,9.31
2023-02-23T04:22:59.483Z,9.25
2023-02-23T04:25:28.553Z,9.20
2023-02-23T04:27:56.172Z,9.15
2023-02-23T04:30:28.696Z,9.13
2023-02-23T04:32:57.049Z,9.12
2023-02-23T04:35:26.892Z,9.07
2023-02-23T04:37:54.743Z,9.04
2023-02-23T04:40:24.312Z,8.98
2023-02-23T04:42:52.812Z,8.97
2023-02-23T04:45:22.189Z,8.96
2023-02-23T04:47:50.932Z,8.93
2023-02-23T04:50:20.081Z,8.93
2023-02-23T04:52:48.801Z,8.92
2023-02-23T04:55:21.586Z,8.89
2023-02-23T04:57:49.851Z,8.88
2023-02-23T05:00:19.179Z,8.87
2023-02-23T05:02:47.298Z,8.84
2023-02-23T05:05:16.080Z,8.82
2023-02-23T05:07:44.106Z,8.82
2023-02-23T05:10:12.423Z,8.79
2023-02-23T05:12:39.979Z,8.79
2023-02-23T05:15:08.391Z,8.77
2023-02-23T05:17:39.003Z,8.75
2023-02-23T05:20:07.997Z,8.74
2023-02-23T05:22:35.641Z,8.73
2023-02-23T05:25:04.338Z,8.72
2023-02-23T05:27:32.774Z,8.70
2023-02-23T05:30:01.528Z,8.70
2023-02-23T05:32:29.761Z,8.67
2023-02-23T05:34:57.819Z,8.66
2023-02-23T05:37:25.360Z,8.66
2023-02-23T05:39:53.188Z,8.71
2023-02-23T05:42:20.619Z,8.74
2023-02-23T05:44:49.112Z,8.79
2023-02-23T05:47:19.579Z,8.83
2023-02-23T05:50:26.746Z,8.85
2023-02-23T05:52:57.462Z,8.86
2023-02-23T05:55:25.838Z,8.84
2023-02-23T05:57:53.497Z,8.86
2023-02-23T06:00:22.176Z,8.88
2023-02-23T06:02:52.502Z,8.90
2023-02-23T06:05:20.610Z,8.94
2023-02-23T06:07:48.184Z,9.03
2023-02-23T06:10:16.543Z,9.19
2023-02-23T06:12:44.094Z,9.37
2023-02-23T06:15:12.093Z,9.55
2023-02-23T06:17:39.713Z,9.71
2023-02-23T06:20:08.159Z,9.84
2023-02-23T06:22:35.894Z,9.98
2023-02-23T06:25:05.229Z,10.12
2023-02-23T06:27:32.852Z,10.20
2023-02-23T06:30:00.692Z,10.29
2023-02-23T06:32:28.446Z,10.36
2023-02-23T06:34:56.610Z,10.47
2023-02-23T06:37:25.501Z,10.53
2023-02-23T06:39:53.379Z,10.62
2023-02-23T06:42:20.952Z,10.68
2023-02-23T06:44:48.860Z,10.71
2023-02-23T06:47:16.688Z,10.75
2023-02-23T06:49:44.607Z,10.80
2023-02-23T06:52:13.838Z,10.88
2023-02-23T06:54:42.540Z,10.97
2023-02-23T06:57:11.190Z,11.06
2023-02-23T06:59:39.411Z,11.13
2023-02-23T07:02:07.468Z,11.22
2023-02-23T07:04:35.440Z,11.30
2023-02-23T07:07:03.858Z,11.36
2023-02-23T07:09:32.095Z,11.44
2023-02-23T07:12:00.990Z,11.46
2023-02-23T07:14:29.538Z,11.52
2023-02-23T07:16:57.741Z,11.54
2023-02-23T07:19:26.109Z,11.59
2023-02-23T07:21:53.887Z,11.60
2023-02-23T07:24:43.249Z,11.61
2023-02-23T07:27:22.262Z,11.65
2023-02-23T07:29:51.464Z,11.68
2023-02-23T07:32:19.260Z,11.71
2023-02-23T07:34:47.957Z,11.77
2023-02-23T07:37:17.156Z,11.82
2023-02-23T07:39:45.269Z,11.85
2023-02-23T07:42:13.222Z,11.89
2023-02-23T07:44:41.170Z,11.94
2023-02-23T07:47:08.760Z,11.99
2023-02-23T07:49:36.631Z,12.05
2023-02-23T07:52:04.352Z,12.06
2023-02-23T07:54:32.290Z,12.13
2023-02-23T07:57:00.389Z,12.15
2023-02-23T07:59:28.175Z,12.19
2023-02-23T08:01:55.883Z,12.22
2023-02-23T08:04:24.258Z,12.23
2023-02-23T08:06:51.797Z,12.24
2023-02-23T08:09:19.951Z,12.27
2023-02-23T08:11:47.425Z,12.30
2023-02-23T08:14:15.432Z,12.34
2023-02-23T08:16:42.963Z,12.39
2023-02-23T08:19:11.142Z,12.42
2023-02-23T08:21:38.699Z,12.49
2023-02-23T08:24:07.138Z,12.48
2023-02-23T08:26:37.788Z,12.52
2023-02-23T08:29:06.013Z,12.57
2023-02-23T08:31:33.918Z,12.63
2023-02-23T08:34:02.389Z,12.68
2023-02-23T08:36:29.790Z,12.76
2023-02-23T08:38:58.175Z,12.87
2023-02-23T08:41:26.309Z,12.91
2023-02-23T08:43:54.547Z,12.93
2023-02-23T08:46:22.344Z,12.92
2023-02-23T08:48:50.183Z,12.97
2023-02-23T08:51:18.653Z,13.07
2023-02-23T08:53:46.766Z,13.14
2023-02-23T08:56:15.501Z,13.20
2023-02-23T08:58:43.722Z,13.27
2023-02-23T09:01:22.097Z,13.32
2023-02-23T09:03:50.417Z,13.34
2023-02-23T09:06:22.899Z,13.40
2023-02-23T09:08:51.214Z,13.49
2023-02-23T09:11:19.161Z,13.55
2023-02-23T09:13:47.734Z,13.58
2023-02-23T09:16:15.335Z,13.65
2023-02-23T09:18:44.055Z,13.65
2023-02-23T09:21:25.489Z,13.69
2023-02-23T09:23:56.131Z,13.69
2023-02-23T09:26:24.556Z,13.73
2023-02-23T09:28:52.439Z,13.79
2023-02-23T09:31:23.922Z,13.77
2023-02-23T09:33:53.314Z,13.81
2023-02-23T09:36:25.063Z,13.89
2023-02-23T09:38:57.194Z,13.99
2023-02-23T09:41:54.213Z,14.10
2023-02-23T09:44:41.272Z,14.22
2023-02-23T09:47:45.339Z,14.38
2023-02-23T09:50:26.913Z,14.52
2023-02-23T09:53:21.785Z,14.57
2023-02-23T09:55:51.998Z,14.66
2023-02-23T09:58:30.409Z,14.74
2023-02-23T10:01:27.164Z,14.87
2023-02-23T10:04:31.383Z,15.00
2023-02-23T10:07:18.696Z,15.10
2023-02-23T10:10:07.325Z,15.19
2023-02-23T10:12:58.847Z,15.29
2023-02-23T10:15:47.384Z,15.39
2023-02-23T10:18:46.202Z,15.48
2023-02-23T10:21:40.395Z,15.61
2023-02-23T10:24:35.431Z,15.76
2023-02-23T10:27:25.743Z,15.86
2023-02-23T10:29:56.544Z,15.96
2023-02-23T10:32:57.797Z,16.08
2023-02-23T10:35:29.993Z,16.06
2023-02-23T10:37:59.948Z,16.00
2023-02-23T10:40:33.012Z,16.02
2023-02-23T10:43:03.347Z,16.09
2023-02-23T10:45:52.056Z,16.22
2023-02-23T10:48:27.749Z,16.32
2023-02-23T10:51:03.179Z,16.41
2023-02-23T10:53:36.668Z,16.50
2023-02-23T10:56:25.176Z,16.61
2023-02-23T10:58:59.008Z,16.72
2023-02-23T11:02:00.985Z,16.77
2023-02-23T11:04:35.111Z,16.76
2023-02-23T11:07:18.630Z,16.75
2023-02-23T11:09:48.095Z,16.75
2023-02-23T11:12:41.995Z,16.79
2023-02-23T11:15:31.962Z,16.87
2023-02-23T11:18:07.792Z,16.94
2023-02-23T11:20:43.312Z,17.03
2023-02-23T11:23:36.754Z,17.13
2023-02-23T11:26:32.988Z,17.17
2023-02-23T11:29:31.219Z,17.29
2023-02-23T11:31:59.756Z,17.47
2023-02-23T11:34:41.286Z,17.60
2023-02-23T11:37:23.158Z,17.71
2023-02-23T11:39:59.379Z,17.78
2023-02-23T11:42:35.198Z,17.82
2023-02-23T11:45:17.254Z,17.96
2023-02-23T11:47:55.266Z,18.09
2023-02-23T11:50:36.396Z,18.22
2023-02-23T11:53:13.838Z,18.32
2023-02-23T11:55:54.845Z,18.36
2023-02-23T11:58:35.937Z,18.44
2023-02-23T12:01:14.378Z,18.50
2023-02-23T12:03:58.528Z,18.51
2023-02-23T12:06:30.603Z,18.55
2023-02-23T12:09:02.962Z,18.62
2023-02-23T12:11:37.663Z,18.65
2023-02-23T12:14:26.235Z,18.71
2023-02-23T12:17:05.293Z,18.82
2023-02-23T12:20:11.278Z,18.98
2023-02-23T12:22:48.749Z,19.03
2023-02-23T12:26:11.788Z,19.11
2023-02-23T12:28:45.944Z,19.26
2023-02-23T12:31:40.433Z,19.40
2023-02-23T12:34:38.577Z,19.59
2023-02-23T12:37:28.395Z,19.81
2023-02-23T12:40:28.082Z,20.06
2023-02-23T12:43:27.008Z,20.20
2023-02-23T12:46:21.925Z,20.34
2023-02-23T12:49:19.236Z,20.52
2023-02-23T12:52:02.183Z,20.74
2023-02-23T12:54:31.772Z,21.04
2023-02-23T12:57:28.016Z,21.17
2023-02-23T13:00:36.518Z,21.30
2023-02-23T13:03:31.318Z,21.48
2023-02-23T13:06:30.462Z,21.69
2023-02-23T13:09:31.749Z,21.94
2023-02-23T13:12:17.007Z,22.11
2023-02-23T13:15:19.656Z,22.39
2023-02-23T13:18:01.719Z,22.51
2023-02-23T13:20:55.946Z,22.65
2023-02-23T13:23:36.183Z,22.77
2023-02-23T13:26:28.764Z,22.81
2023-02-23T13:29:02.651Z,22.81
2023-02-23T13:31:37.478Z,22.89
2023-02-23T13:34:12.382Z,23.01
2023-02-23T13:36:42.174Z,23.05
2023-02-23T13:39:31.223Z,23.26
2023-02-23T13:42:28.188Z,23.60
2023-02-23T13:45:26.321Z,23.85
2023-02-23T13:48:14.235Z,23.94
2023-02-23T13:51:06.169Z,23.85
2023-02-23T13:54:06.226Z,23.77
2023-02-23T13:56:44.442Z,23.85
2023-02-23T13:59:52.772Z,23.95
2023-02-23T14:02:41.317Z,24.05
2023-02-23T14:05:27.544Z,23.99
2023-02-23T14:08:06.098Z,23.89
2023-02-23T14:10:37.633Z,23.91
2023-02-23T14:13:28.997Z,23.98
2023-02-23T14:16:23.143Z,24.12
2023-02-23T14:19:12.800Z,24.25
2023-02-23T14:22:04.226Z,24.31
2023-02-23T14:24:31.893Z,24.34
2023-02-23T14:27:07.366Z,24.40
2023-02-23T14:30:05.700Z,24.42
2023-02-23T14:32:49.314Z,24.45
2023-02-23T14:35:40.202Z,24.48
2023-02-23T14:38:07.971Z,24.51
2023-02-23T14:40:41.979Z,24.61
2023-02-23T14:43:43.477Z,24.62
2023-02-23T14:46:21.492Z,24.56
2023-02-23T14:49:10.490Z,24.42
2023-02-23T14:51:48.149Z,24.34
2023-02-23T14:54:27.330Z,24.27
2023-02-23T14:56:58.249Z,24.30
2023-02-23T14:59:49.015Z,24.11
2023-02-23T15:02:24.937Z,24.07
2023-02-23T15:04:53.379Z,23.89
2023-02-23T15:07:40.009Z,23.77
2023-02-23T15:10:43.561Z,23.83
2023-02-23T15:13:34.268Z,23.94
2023-02-23T15:16:13.029Z,24.07
2023-02-23T15:18:44.675Z,24.13
2023-02-23T15:21:19.509Z,24.22
2023-02-23T15:23:53.033Z,24.31
2023-02-23T15:26:35.445Z,24.27
2023-02-23T15:29:10.152Z,24.17
2023-02-23T15:31:50.257Z,24.10
2023-02-23T15:34:20.507Z,23.88
2023-02-23T15:37:06.226Z,23.47
2023-02-23T15:39:54.240Z,22.93
2023-02-23T15:42:29.047Z,22.23
2023-02-23T15:45:05.323Z,21.88
2023-02-23T15:47:37.714Z,21.60
2023-02-23T15:50:24.709Z,21.34
2023-02-23T15:53:08.954Z,21.04
2023-02-23T15:55:38.361Z,20.71
2023-02-23T15:58:17.933Z,20.40
2023-02-23T16:01:08.898Z,20.03
2023-02-23T16:03:44.423Z,19.71
2023-02-23T16:06:33.408Z,19.29
2023-02-23T16:09:05.822Z,18.87
2023-02-23T16:11:37.090Z,18.48
2023-02-23T16:14:06.888Z,18.20
2023-02-23T16:16:35.876Z,17.96
2023-02-23T16:19:05.122Z,17.74
2023-02-23T16:21:33.132Z,17.50
2023-02-23T16:24:13.846Z,17.33
2023-02-23T16:26:44.465Z,17.16
2023-02-23T16:29:21.267Z,16.95
2023-02-23T16:31:59.923Z,16.79
2023-02-23T16:34:37.264Z,16.67
2023-02-23T16:37:23.076Z,16.51
2023-02-23T16:39:51.834Z,16.44
2023-02-23T16:42:34.879Z,16.36
2023-02-23T16:45:03.053Z,16.28
2023-02-23T16:47:43.799Z,16.18
2023-02-23T16:50:24.423Z,16.11
2023-02-23T16:52:53.710Z,16.01
2023-02-23T16:55:28.559Z,15.97
2023-02-23T16:58:02.330Z,15.85
2023-02-23T17:00:33.676Z,15.81
2023-02-23T17:03:02.248Z,15.73
2023-02-23T17:05:30.529Z,15.68
2023-02-23T17:07:59.231Z,15.59
2023-02-23T17:10:32.527Z,15.49
2023-02-23T17:13:12.961Z,15.38
2023-02-23T17:15:51.750Z,15.25
2023-02-23T17:20:52.739Z,15.07
2023-02-23T17:23:23.346Z,14.93
2023-02-23T17:25:51.309Z,14.81
2023-02-23T17:28:19.324Z,14.78
2023-02-23T17:30:47.683Z,14.74
2023-02-23T17:33:15.465Z,14.73
2023-02-23T17:35:44.071Z,14.68
2023-02-23T17:38:11.601Z,14.66
2023-02-23T17:40:39.544Z,14.56
2023-02-23T17:43:08.086Z,14.53
2023-02-23T17:45:36.192Z,14.43
2023-02-23T17:48:03.790Z,14.32
2023-02-23T17:50:31.617Z,14.22
2023-02-23T17:52:59.239Z,14.14
2023-02-23T17:55:27.068Z,14.07
2023-02-23T17:57:54.599Z,14.00
2023-02-23T18:00:22.374Z,13.97
2023-02-23T18:02:51.092Z,13.94
2023-02-23T18:05:18.888Z,13.89
2023-02-23T18:07:48.447Z,13.83
2023-02-23T18:10:17.328Z,13.79
2023-02-23T18:12:45.529Z,13.74
2023-02-23T18:15:13.260Z,13.72
2023-02-23T18:17:41.288Z,13.71
2023-02-23T18:20:10.998Z,13.69
2023-02-23T18:22:39.397Z,13.70
2023-02-23T18:25:07.952Z,13.67
2023-02-23T18:27:35.812Z,13.63
2023-02-23T18:30:04.135Z,13.63
2023-02-23T18:32:32.525Z,13.59
2023-02-23T18:35:01.163Z,13.54
2023-02-23T18:37:29.740Z,13.51
2023-02-23T18:39:59.359Z,13.52
2023-02-23T18:42:27.302Z,13.50
2023-02-23T18:44:54.797Z,13.50
2023-02-23T18:47:22.801Z,13.51
2023-02-23T18:49:50.582Z,13.50
2023-02-23T18:52:18.381Z,13.53
2023-02-23T18:54:46.241Z,13.55
2023-02-23T18:57:14.171Z,13.60
2023-02-23T18:59:41.817Z,13.57
2023-02-23T19:02:10.935Z,13.51
2023-02-23T19:04:39.392Z,13.45
2023-02-23T19:07:07.264Z,13.41
2023-02-23T19:09:39.738Z,13.43
2023-02-23T19:12:07.849Z,13.47
2023-02-23T19:14:48.908Z,13.47
2023-02-23T19:17:17.724Z,13.50
2023-02-23T19:19:45.471Z,13.54
2023-02-23T19:22:13.440Z,13.51
2023-02-23T19:24:41.221Z,13.51
2023-02-23T19:27:10.146Z,13.46
2023-02-23T19:29:37.825Z,13.41
2023-02-23T19:32:06.994Z,13.44
2023-02-23T19:34:36.255Z,13.46
2023-02-23T19:37:04.082Z,13.49
2023-02-23T19:39:31.897Z,13.49
2023-02-23T19:41:59.718Z,13.46
2023-02-23T19:44:27.311Z,13.48
2023-02-23T19:46:55.439Z,13.42
2023-02-23T19:49:23.671Z,13.39
2023-02-23T19:51:53.146Z,13.37
2023-02-23T19:54:20.999Z,13.38
2023-02-23T19:56:50.565Z,13.33
2023-02-23T19:59:19.093Z,13.33
2023-02-23T20:01:47.245Z,13.31
2023-02-23T20:04:14.968Z,13.29
2023-02-23T20:06:47.193Z,13.25
2023-02-23T20:09:15.626Z,13.20
2023-02-23T20:11:43.576Z,13.13
2023-02-23T20:14:12.539Z,13.06
2023-02-23T20:16:40.853Z,13.02
2023-02-23T20:19:08.551Z,13.00
2023-02-23T20:22:16.143Z,13.00
2023-02-23T20:24:44.107Z,12.99
2023-02-23T20:27:12.044Z,12.99
2023-02-23T20:29:39.724Z,12.97
2023-02-23T20:32:08.646Z,12.94
2023-02-23T20:34:39.625Z,12.88
2023-02-23T20:37:08.444Z,12.88
2023-02-23T20:39:37.351Z,12.85
2023-02-23T20:42:05.947Z,12.84
2023-02-23T20:44:33.804Z,12.80
2023-02-23T20:48:01.569Z,12.77
2023-02-23T20:51:12.906Z,12.75
2023-02-23T20:53:42.434Z,12.76
2023-02-23T20:56:11.044Z,12.75
2023-02-23T20:58:39.837Z,12.74
2023-02-23T21:01:20.587Z,12.70
2023-02-23T21:03:54.056Z,12.67
2023-02-23T21:06:26.038Z,12.60
2023-02-23T21:09:02.940Z,12.54
2023-02-23T21:11:34.218Z,12.52
2023-02-23T21:14:41.310Z,12.49
2023-02-23T21:18:01.004Z,12.43
2023-02-23T21:20:30.328Z,12.38
2023-02-23T21:22:58.650Z,12.34
2023-02-23T21:25:28.607Z,12.31
2023-02-23T21:27:57.255Z,12.28
2023-02-23T21:30:28.720Z,12.23
2023-02-23T21:32:57.917Z,12.20
2023-02-23T21:35:25.615Z,12.16
2023-02-23T21:37:53.753Z,12.18
2023-02-23T21:40:22.309Z,12.17
2023-02-23T21:42:51.318Z,12.12
2023-02-23T21:45:19.536Z,12.05
2023-02-23T21:47:49.137Z,12.05
2023-02-23T21:50:19.857Z,12.05
2023-02-23T21:52:50.513Z,12.04
2023-02-23T21:55:22.153Z,12.06
2023-02-23T21:57:52.117Z,11.98
2023-02-23T22:00:21.110Z,11.95
2023-02-23T22:02:50.573Z,11.91
2023-02-23T22:05:20.499Z,11.87
2023-02-23T22:07:52.192Z,11.85
2023-02-23T22:10:23.350Z,11.82
2023-02-23T22:12:56.022Z,11.82
2023-02-23T22:15:29.824Z,11.82
2023-02-23T22:17:58.567Z,11.82
2023-02-23T22:20:26.380Z,11.81
2023-02-23T22:22:54.842Z,11.79
2023-02-23T22:25:22.626Z,11.80
2023-02-23T22:27:51.738Z,11.82
2023-02-23T22:30:23.928Z,11.82
2023-02-23T22:32:52.168Z,11.81
2023-02-23T22:35:19.942Z,11.78
2023-02-23T22:37:48.365Z,11.75
2023-02-23T22:40:16.890Z,11.76
2023-02-23T22:42:49.803Z,11.77
2023-02-23T22:45:19.010Z,11.79
2023-02-23T22:47:48.376Z,11.81
2023-02-23T22:50:19.507Z,11.84
2023-02-23T22:52:47.684Z,11.88
2023-02-23T22:55:15.344Z,11.89
2023-02-23T22:57:44.070Z,11.93
2023-02-23T23:00:14.678Z,11.97
2023-02-23T23:02:43.189Z,12.00
2023-02-23T23:05:13.410Z,11.98
2023-02-23T23:07:42.035Z,12.11
2023-02-23T23:10:12.178Z,12.35
2023-02-23T23:12:40.517Z,12.53
2023-02-23T23:15:17.274Z,12.68
2023-02-23T23:17:48.637Z,12.89
2023-02-23T23:20:25.686Z,12.92
2023-02-23T23:22:57.513Z,12.77
2023-02-23T23:25:25.687Z,12.60
2023-02-23T23:27:56.255Z,12.43
2023-02-23T23:30:29.413Z,12.26
2023-02-23T23:32:58.457Z,12.13
2023-02-23T23:35:26.246Z,12.03
2023-02-23T23:37:54.075Z,11.95
2023-02-23T23:40:24.600Z,11.89
2023-02-23T23:42:53.351Z,11.83
2023-02-23T23:45:24.446Z,11.79
2023-02-23T23:47:52.421Z,11.79
2023-02-23T23:50:24.458Z,11.78
2023-02-23T23:52:54.390Z,11.78
2023-02-23T23:55:22.428Z,11.77
2023-02-23T23:57:50.236Z,11.77
